Star, Texas
Current Conditions -  °F | °C
As of 8:55 PM on Wednesday 26 Nov 2014 (Local Time) from KMNZ Reporting Station
Clear Clear  
Wind Chill:   Ceiling: Unl
Heat Index:   Visibility: 10mi
Dew Point:   Wind: 7mph
Humidity: 62%   Direction: 350°N
Pressure: 30.34"   Gusts: NA
Location:  31.47°N, 98.32°W
Report Text: KMNZ 270255Z AUTO 35006KT 10SM CLR 08/02 A3034 RMK AO2 T00840015
Loading
Personal Weather Stations






























Interactive Weather Map New forecast layout! Learn more

10-Day Weather Forecast

Advertisements
Track Severe Weather on mobile